KAKQ/AKQ METAR and TAF weather

Enter ICAO airport designator
Station Type Date Time Source
KAKQ METAR 2021/07/30 22:06 UTC NOAA

KAKQ 302206Z AUTO 05004KT 9SM -RA FEW033 BKN044 BKN075 28/24 A2988 RMK AO2 P0000 T02780244


Station Type Date Time Source
KAKQ Decoded METAR 2021/07/30 22:06 UTC NOAA

WAKEFIELD MUNICIPAL AIRPOR, VA, United States (KAKQ) 36-59N 077-00W 33M
Jul 30, 2021 - 06:06 PM EDT / 2021.07.30 2206 UTC
Wind: from the NE (050 degrees) at 5 MPH (4 KT):0
Visibility: 9 mile(s):0
Sky conditions: mostly cloudy
Weather: light rain
Precipitation last hour: A trace
Temperature: 82.0 F (27.8 C)
Dew Point: 75.9 F (24.4 C)
Relative Humidity: 81%
Pressure (altimeter): 29.88 in. Hg (1011 hPa)
ob: KAKQ 302206Z AUTO 05004KT 9SM -RA FEW033 BKN044 BKN075 28/24 A2988 RMK AO2 P0000 T02780244
cycle: 22

Station Type Date Time Source
KAKQ TAF UTC NOAA

Error!

Example: see airport list